createdAt,value
2022-11-07T00:00:51.980Z,17.70
2022-11-07T00:08:31.892Z,18.42
2022-11-07T00:16:07.997Z,16.85
2022-11-07T00:23:43.404Z,19.40
2022-11-07T00:31:18.970Z,16.92
2022-11-07T00:38:54.758Z,16.30
2022-11-07T00:46:28.458Z,16.73
2022-11-07T00:54:04.775Z,16.13
2022-11-07T01:01:38.605Z,14.23
2022-11-07T01:09:16.587Z,15.60
2022-11-07T01:16:50.715Z,14.95
2022-11-07T01:24:26.000Z,16.30
2022-11-07T01:31:59.925Z,12.13
2022-11-07T01:39:35.077Z,13.80
2022-11-07T01:47:10.864Z,11.90
2022-11-07T01:54:52.538Z,15.50
2022-11-07T02:02:28.128Z,14.07
2022-11-07T02:10:05.541Z,10.88
2022-11-07T02:17:39.673Z,12.27
2022-11-07T02:25:16.789Z,13.50
2022-11-07T02:32:51.687Z,11.30
2022-11-07T02:40:27.759Z,13.95
2022-11-07T02:48:01.962Z,10.65
2022-11-07T02:55:36.995Z,12.57
2022-11-07T03:03:10.884Z,9.57
2022-11-07T03:10:45.959Z,9.53
2022-11-07T03:18:19.705Z,11.73
2022-11-07T03:25:54.765Z,9.55
2022-11-07T03:33:29.145Z,12.45
2022-11-07T03:41:04.446Z,10.23
2022-11-07T03:48:38.288Z,9.85
2022-11-07T03:56:13.914Z,10.32
2022-11-07T04:03:47.565Z,11.40
2022-11-07T04:11:39.960Z,10.80
2022-11-07T04:19:13.565Z,10.63
2022-11-07T04:27:20.904Z,9.18
2022-11-07T04:34:54.585Z,10.05
2022-11-07T04:42:29.604Z,9.93
2022-11-07T04:50:03.371Z,9.02
2022-11-07T04:57:38.421Z,12.63
2022-11-07T05:05:12.777Z,9.77
2022-11-07T05:12:48.217Z,7.03
2022-11-07T05:20:30.885Z,8.48
2022-11-07T05:28:06.329Z,8.77
2022-11-07T05:35:40.324Z,8.57
2022-11-07T05:43:17.049Z,7.07
2022-11-07T05:50:51.107Z,8.70
2022-11-07T05:58:26.235Z,5.78
2022-11-07T06:06:00.326Z,6.53
2022-11-07T06:13:35.371Z,5.90
2022-11-07T06:21:09.087Z,6.55
2022-11-07T06:28:44.136Z,6.75
2022-11-07T06:36:18.229Z,6.43
2022-11-07T06:43:53.388Z,6.03
2022-11-07T06:51:27.367Z,6.20
2022-11-07T06:59:02.488Z,5.17
2022-11-07T07:06:36.149Z,6.32
2022-11-07T07:14:11.898Z,5.35
2022-11-07T07:21:45.685Z,4.18
2022-11-07T07:29:20.784Z,4.82
2022-11-07T07:36:55.047Z,6.13
2022-11-07T07:44:31.121Z,5.90
2022-11-07T07:52:05.235Z,5.32
2022-11-07T07:59:40.311Z,5.10
2022-11-07T08:07:14.232Z,6.95
2022-11-07T08:14:49.274Z,5.88
2022-11-07T08:29:58.096Z,4.60
2022-11-07T08:37:31.967Z,4.15
2022-11-07T08:45:09.925Z,4.43
2022-11-07T08:52:43.646Z,6.75
2022-11-07T09:00:19.428Z,2.80
2022-11-07T09:07:53.109Z,5.50
2022-11-07T09:15:28.135Z,4.30
2022-11-07T09:30:36.923Z,3.55
2022-11-07T09:38:10.656Z,2.22
2022-11-07T09:45:55.064Z,3.33
2022-11-07T09:53:33.030Z,4.80
2022-11-07T10:01:14.535Z,3.20
2022-11-07T10:08:54.559Z,2.53
2022-11-07T10:16:40.540Z,3.95
2022-11-07T10:24:32.171Z,4.10
2022-11-07T10:32:20.042Z,5.03
2022-11-07T10:39:54.158Z,3.30
2022-11-07T10:47:29.532Z,2.37
2022-11-07T10:55:08.759Z,3.92
2022-11-07T11:02:48.310Z,2.22
2022-11-07T11:10:24.471Z,4.15
2022-11-07T11:18:02.771Z,2.45
2022-11-07T11:25:47.239Z,2.55
2022-11-07T11:33:27.041Z,2.78
2022-11-07T11:41:10.948Z,4.63
2022-11-07T11:48:51.880Z,4.10
2022-11-07T11:56:40.220Z,2.70
2022-11-07T12:04:31.488Z,2.55
2022-11-07T12:12:18.708Z,4.47
2022-11-07T12:19:59.870Z,3.47
2022-11-07T12:27:43.906Z,3.42
2022-11-07T12:35:29.280Z,2.33
2022-11-07T12:50:55.837Z,2.95
2022-11-07T12:58:32.434Z,4.05
2022-11-07T13:06:15.591Z,3.00
2022-11-07T13:14:21.117Z,2.40
2022-11-07T13:22:05.382Z,4.45
2022-11-07T13:29:41.296Z,3.38
2022-11-07T13:37:21.585Z,3.05
2022-11-07T13:44:59.221Z,4.55
2022-11-07T13:52:41.734Z,3.25
2022-11-07T14:00:19.564Z,4.20
2022-11-07T14:07:58.988Z,2.55
2022-11-07T14:15:32.820Z,3.63
2022-11-07T14:23:14.353Z,2.95
2022-11-07T14:30:51.842Z,2.42
2022-11-07T14:38:26.961Z,1.98
2022-11-07T14:46:13.187Z,2.95
2022-11-07T14:53:56.752Z,6.75
2022-11-07T15:01:32.124Z,2.10
2022-11-07T15:09:08.980Z,3.58
2022-11-07T15:16:49.442Z,8.85
2022-11-07T15:24:34.992Z,3.97
2022-11-07T15:32:15.301Z,3.95
2022-11-07T15:39:51.204Z,4.65
2022-11-07T15:47:24.838Z,2.72
2022-11-07T15:55:00.188Z,7.55
2022-11-07T16:02:34.085Z,4.32
2022-11-07T16:10:21.526Z,3.08
2022-11-07T16:17:55.206Z,3.15
2022-11-07T16:25:31.921Z,3.10
2022-11-07T16:33:05.953Z,4.05
2022-11-07T16:40:42.057Z,4.43
2022-11-07T16:48:24.889Z,4.95
2022-11-07T16:56:04.157Z,3.90
2022-11-07T17:03:37.939Z,4.60
2022-11-07T17:11:14.663Z,8.45
2022-11-07T17:18:49.386Z,5.45
2022-11-07T17:26:28.068Z,3.95
2022-11-07T17:34:01.758Z,4.75
2022-11-07T17:41:36.833Z,4.10
2022-11-07T17:56:47.107Z,2.38
2022-11-07T18:11:55.762Z,5.40
2022-11-07T18:19:29.711Z,5.10
2022-11-07T18:27:10.129Z,6.32
2022-11-07T18:34:44.210Z,6.18
2022-11-07T18:42:19.286Z,4.65
2022-11-07T18:57:32.870Z,7.85
2022-11-07T19:05:07.669Z,8.82
2022-11-07T19:12:44.501Z,5.75
2022-11-07T19:20:20.205Z,8.95
2022-11-07T19:27:55.290Z,6.20
2022-11-07T19:35:29.604Z,5.72
2022-11-07T19:43:05.461Z,5.13
2022-11-07T19:50:39.400Z,4.53
2022-11-07T19:58:15.976Z,4.00
2022-11-07T20:05:51.207Z,7.50
2022-11-07T20:13:26.601Z,3.85
2022-11-07T20:21:05.401Z,6.95
2022-11-07T20:28:40.938Z,4.60
2022-11-07T20:36:16.767Z,6.75
2022-11-07T20:43:55.434Z,4.85
2022-11-07T20:51:29.783Z,5.18
2022-11-07T20:59:04.832Z,7.10
2022-11-07T21:14:13.859Z,6.55
2022-11-07T21:21:49.414Z,6.63
2022-11-07T21:29:29.265Z,9.88
2022-11-07T21:37:03.717Z,5.15
2022-11-07T21:44:38.742Z,6.18
2022-11-07T21:59:47.385Z,7.25
2022-11-07T22:14:57.211Z,3.58
2022-11-07T22:22:30.960Z,9.02
2022-11-07T22:30:07.223Z,7.38
2022-11-07T22:37:40.877Z,7.15
2022-11-07T22:45:15.994Z,3.85
2022-11-07T22:52:49.678Z,4.30
2022-11-07T23:00:24.614Z,4.15
2022-11-07T23:15:34.283Z,3.53
2022-11-07T23:23:07.868Z,5.13
2022-11-07T23:30:42.972Z,3.15
2022-11-07T23:38:16.867Z,3.00
2022-11-07T23:46:09.642Z,4.60
2022-11-07T23:54:01.297Z,5.88
